sensor_id;sensor_type;location;lat;lon;timestamp;temperature;humidity
28677;DHT22;15858;48.338;11.078;2023-05-23T00:01:38;16.50;99.90
28677;DHT22;15858;48.338;11.078;2023-05-23T00:04:05;16.50;99.90
28677;DHT22;15858;48.338;11.078;2023-05-23T00:06:32;16.60;99.90
28677;DHT22;15858;48.338;11.078;2023-05-23T00:08:59;16.50;99.90
28677;DHT22;15858;48.338;11.078;2023-05-23T00:11:25;16.60;99.90
28677;DHT22;15858;48.338;11.078;2023-05-23T00:13:52;16.50;99.90
28677;DHT22;15858;48.338;11.078;2023-05-23T00:16:19;16.50;99.90
28677;DHT22;15858;48.338;11.078;2023-05-23T00:18:46;16.50;99.90
28677;DHT22;15858;48.338;11.078;2023-05-23T00:21:13;16.50;99.90
28677;DHT22;15858;48.338;11.078;2023-05-23T00:23:39;16.50;99.90
28677;DHT22;15858;48.338;11.078;2023-05-23T00:26:06;16.50;99.90
28677;DHT22;15858;48.338;11.078;2023-05-23T00:28:33;16.50;99.90
28677;DHT22;15858;48.338;11.078;2023-05-23T00:31:00;16.40;99.90
28677;DHT22;15858;48.338;11.078;2023-05-23T00:33:26;16.40;99.90
28677;DHT22;15858;48.338;11.078;2023-05-23T00:35:53;16.30;99.90
28677;DHT22;15858;48.338;11.078;2023-05-23T00:38:20;16.30;99.90
28677;DHT22;15858;48.338;11.078;2023-05-23T00:40:46;16.30;99.90
28677;DHT22;15858;48.338;11.078;2023-05-23T00:43:13;16.40;99.90
28677;DHT22;15858;48.338;11.078;2023-05-23T00:45:40;16.30;99.90
28677;DHT22;15858;48.338;11.078;2023-05-23T00:48:07;16.30;99.90
28677;DHT22;15858;48.338;11.078;2023-05-23T00:50:34;16.30;99.90
28677;DHT22;15858;48.338;11.078;2023-05-23T00:53:01;16.30;99.90
28677;DHT22;15858;48.338;11.078;2023-05-23T00:55:27;16.30;99.90
28677;DHT22;15858;48.338;11.078;2023-05-23T00:57:54;16.30;99.90
28677;DHT22;15858;48.338;11.078;2023-05-23T01:00:25;16.30;99.90
28677;DHT22;15858;48.338;11.078;2023-05-23T01:02:52;16.30;99.90
28677;DHT22;15858;48.338;11.078;2023-05-23T01:05:20;16.20;99.90
28677;DHT22;15858;48.338;11.078;2023-05-23T01:07:48;16.20;99.90
28677;DHT22;15858;48.338;11.078;2023-05-23T01:10:18;16.20;99.90
28677;DHT22;15858;48.338;11.078;2023-05-23T01:12:57;16.10;99.90
28677;DHT22;15858;48.338;11.078;2023-05-23T01:15:35;16.10;99.90
28677;DHT22;15858;48.338;11.078;2023-05-23T01:18:37;16.10;99.90
28677;DHT22;15858;48.338;11.078;2023-05-23T01:21:16;16.10;99.90
28677;DHT22;15858;48.338;11.078;2023-05-23T01:29:11;15.90;99.90
28677;DHT22;15858;48.338;11.078;2023-05-23T01:31:42;15.90;99.90
28677;DHT22;15858;48.338;11.078;2023-05-23T01:34:09;15.80;99.90
28677;DHT22;15858;48.338;11.078;2023-05-23T01:36:42;15.80;99.90
28677;DHT22;15858;48.338;11.078;2023-05-23T01:39:09;15.80;99.90
28677;DHT22;15858;48.338;11.078;2023-05-23T01:41:36;15.80;99.90
28677;DHT22;15858;48.338;11.078;2023-05-23T01:44:04;15.70;99.90
28677;DHT22;15858;48.338;11.078;2023-05-23T01:46:31;15.70;99.90
28677;DHT22;15858;48.338;11.078;2023-05-23T01:49:00;15.70;99.90
28677;DHT22;15858;48.338;11.078;2023-05-23T01:51:29;15.70;99.90
28677;DHT22;15858;48.338;11.078;2023-05-23T01:53:56;15.60;99.90
28677;DHT22;15858;48.338;11.078;2023-05-23T01:56:23;15.60;99.90
28677;DHT22;15858;48.338;11.078;2023-05-23T01:58:50;15.50;99.90
28677;DHT22;15858;48.338;11.078;2023-05-23T02:01:17;15.50;99.90
28677;DHT22;15858;48.338;11.078;2023-05-23T02:03:44;15.50;99.90
28677;DHT22;15858;48.338;11.078;2023-05-23T02:06:11;15.50;99.90
28677;DHT22;15858;48.338;11.078;2023-05-23T02:08:37;15.40;99.90
28677;DHT22;15858;48.338;11.078;2023-05-23T02:11:04;15.40;99.90
28677;DHT22;15858;48.338;11.078;2023-05-23T02:13:31;15.30;99.90
28677;DHT22;15858;48.338;11.078;2023-05-23T02:15:57;15.30;99.90
28677;DHT22;15858;48.338;11.078;2023-05-23T02:18:24;15.30;99.90
28677;DHT22;15858;48.338;11.078;2023-05-23T02:20:51;15.30;99.90
28677;DHT22;15858;48.338;11.078;2023-05-23T02:23:17;15.20;99.90
28677;DHT22;15858;48.338;11.078;2023-05-23T02:25:44;15.20;99.90
28677;DHT22;15858;48.338;11.078;2023-05-23T02:28:10;15.20;99.90
28677;DHT22;15858;48.338;11.078;2023-05-23T02:30:37;15.10;99.90
28677;DHT22;15858;48.338;11.078;2023-05-23T02:33:05;15.10;99.90
28677;DHT22;15858;48.338;11.078;2023-05-23T02:35:32;15.10;99.90
28677;DHT22;15858;48.338;11.078;2023-05-23T02:37:59;15.00;99.90
28677;DHT22;15858;48.338;11.078;2023-05-23T02:40:26;14.90;99.90
28677;DHT22;15858;48.338;11.078;2023-05-23T02:42:52;15.00;99.90
28677;DHT22;15858;48.338;11.078;2023-05-23T02:45:19;15.00;99.90
28677;DHT22;15858;48.338;11.078;2023-05-23T02:47:45;15.00;99.90
28677;DHT22;15858;48.338;11.078;2023-05-23T02:50:12;15.00;99.90
28677;DHT22;15858;48.338;11.078;2023-05-23T02:52:39;15.10;99.90
28677;DHT22;15858;48.338;11.078;2023-05-23T02:55:06;15.10;99.90
28677;DHT22;15858;48.338;11.078;2023-05-23T02:57:32;15.10;99.90
28677;DHT22;15858;48.338;11.078;2023-05-23T02:59:59;15.20;99.90
28677;DHT22;15858;48.338;11.078;2023-05-23T03:02:26;15.20;99.90
28677;DHT22;15858;48.338;11.078;2023-05-23T03:04:52;15.20;99.90
28677;DHT22;15858;48.338;11.078;2023-05-23T03:07:19;15.10;99.90
28677;DHT22;15858;48.338;11.078;2023-05-23T03:09:54;15.10;99.90
28677;DHT22;15858;48.338;11.078;2023-05-23T03:12:21;15.20;99.90
28677;DHT22;15858;48.338;11.078;2023-05-23T03:14:48;15.10;99.90
28677;DHT22;15858;48.338;11.078;2023-05-23T03:17:14;15.10;99.90
28677;DHT22;15858;48.338;11.078;2023-05-23T03:19:41;15.10;99.90
28677;DHT22;15858;48.338;11.078;2023-05-23T03:22:07;15.10;99.90
28677;DHT22;15858;48.338;11.078;2023-05-23T03:24:34;15.20;99.90
28677;DHT22;15858;48.338;11.078;2023-05-23T03:27:01;15.20;99.90
28677;DHT22;15858;48.338;11.078;2023-05-23T03:29:27;15.20;99.90
28677;DHT22;15858;48.338;11.078;2023-05-23T03:31:54;15.20;99.90
28677;DHT22;15858;48.338;11.078;2023-05-23T03:34:21;15.20;99.90
28677;DHT22;15858;48.338;11.078;2023-05-23T03:36:47;15.20;99.90
28677;DHT22;15858;48.338;11.078;2023-05-23T03:39:14;15.20;99.90
28677;DHT22;15858;48.338;11.078;2023-05-23T03:41:40;15.20;99.90
28677;DHT22;15858;48.338;11.078;2023-05-23T03:44:07;15.20;99.90
28677;DHT22;15858;48.338;11.078;2023-05-23T03:46:34;15.20;99.90
28677;DHT22;15858;48.338;11.078;2023-05-23T03:49:01;15.20;99.90
28677;DHT22;15858;48.338;11.078;2023-05-23T03:51:28;15.10;99.90
28677;DHT22;15858;48.338;11.078;2023-05-23T03:53:54;15.10;99.90
28677;DHT22;15858;48.338;11.078;2023-05-23T03:56:21;15.20;99.90
28677;DHT22;15858;48.338;11.078;2023-05-23T03:58:48;15.20;99.90
28677;DHT22;15858;48.338;11.078;2023-05-23T04:01:14;15.10;99.90
28677;DHT22;15858;48.338;11.078;2023-05-23T04:03:41;15.20;99.90
28677;DHT22;15858;48.338;11.078;2023-05-23T04:06:08;15.20;99.90
28677;DHT22;15858;48.338;11.078;2023-05-23T04:08:37;15.20;99.90
28677;DHT22;15858;48.338;11.078;2023-05-23T04:11:04;15.20;99.90
28677;DHT22;15858;48.338;11.078;2023-05-23T04:13:30;15.10;99.90
28677;DHT22;15858;48.338;11.078;2023-05-23T04:15:59;15.10;99.90
28677;DHT22;15858;48.338;11.078;2023-05-23T04:18:26;15.10;99.90
28677;DHT22;15858;48.338;11.078;2023-05-23T04:20:53;15.10;99.90
28677;DHT22;15858;48.338;11.078;2023-05-23T04:23:20;15.10;99.90
28677;DHT22;15858;48.338;11.078;2023-05-23T04:25:46;15.10;99.90
28677;DHT22;15858;48.338;11.078;2023-05-23T04:28:13;15.10;99.90
28677;DHT22;15858;48.338;11.078;2023-05-23T04:30:40;15.20;99.90
28677;DHT22;15858;48.338;11.078;2023-05-23T04:33:06;15.20;99.90
28677;DHT22;15858;48.338;11.078;2023-05-23T04:35:33;15.30;99.90
28677;DHT22;15858;48.338;11.078;2023-05-23T04:37:59;15.30;99.90
28677;DHT22;15858;48.338;11.078;2023-05-23T04:40:28;15.40;99.90
28677;DHT22;15858;48.338;11.078;2023-05-23T04:42:54;15.40;99.90
28677;DHT22;15858;48.338;11.078;2023-05-23T04:45:21;15.30;99.90
28677;DHT22;15858;48.338;11.078;2023-05-23T04:47:48;15.40;99.90
28677;DHT22;15858;48.338;11.078;2023-05-23T04:50:14;15.40;99.90
28677;DHT22;15858;48.338;11.078;2023-05-23T04:52:41;15.40;99.90
28677;DHT22;15858;48.338;11.078;2023-05-23T04:55:08;15.40;99.90
28677;DHT22;15858;48.338;11.078;2023-05-23T04:57:35;15.30;99.90
28677;DHT22;15858;48.338;11.078;2023-05-23T05:00:02;15.40;99.90
28677;DHT22;15858;48.338;11.078;2023-05-23T05:02:29;15.40;99.90
28677;DHT22;15858;48.338;11.078;2023-05-23T05:04:56;15.50;99.90
28677;DHT22;15858;48.338;11.078;2023-05-23T05:07:22;15.50;99.90
28677;DHT22;15858;48.338;11.078;2023-05-23T05:09:49;15.60;99.90
28677;DHT22;15858;48.338;11.078;2023-05-23T05:12:16;15.60;99.90
28677;DHT22;15858;48.338;11.078;2023-05-23T05:14:42;15.70;99.90
28677;DHT22;15858;48.338;11.078;2023-05-23T05:17:09;15.90;99.90
28677;DHT22;15858;48.338;11.078;2023-05-23T05:19:36;15.90;99.90
28677;DHT22;15858;48.338;11.078;2023-05-23T05:22:03;16.10;99.90
28677;DHT22;15858;48.338;11.078;2023-05-23T05:24:29;16.10;99.90
28677;DHT22;15858;48.338;11.078;2023-05-23T05:26:56;16.20;99.90
28677;DHT22;15858;48.338;11.078;2023-05-23T05:29:22;16.30;99.90
28677;DHT22;15858;48.338;11.078;2023-05-23T05:31:50;16.40;99.90
28677;DHT22;15858;48.338;11.078;2023-05-23T05:34:16;16.50;99.90
28677;DHT22;15858;48.338;11.078;2023-05-23T05:36:43;16.50;99.90
28677;DHT22;15858;48.338;11.078;2023-05-23T05:39:10;16.60;99.90
28677;DHT22;15858;48.338;11.078;2023-05-23T05:41:37;16.60;99.90
28677;DHT22;15858;48.338;11.078;2023-05-23T05:44:03;16.70;99.90
28677;DHT22;15858;48.338;11.078;2023-05-23T05:46:30;16.80;99.90
28677;DHT22;15858;48.338;11.078;2023-05-23T05:48:57;16.90;99.90
28677;DHT22;15858;48.338;11.078;2023-05-23T05:51:23;17.00;99.90
28677;DHT22;15858;48.338;11.078;2023-05-23T05:53:50;17.00;99.90
28677;DHT22;15858;48.338;11.078;2023-05-23T05:56:16;16.90;99.90
28677;DHT22;15858;48.338;11.078;2023-05-23T05:58:43;16.90;99.90
28677;DHT22;15858;48.338;11.078;2023-05-23T06:01:10;17.00;99.90
28677;DHT22;15858;48.338;11.078;2023-05-23T06:03:36;16.90;99.90
28677;DHT22;15858;48.338;11.078;2023-05-23T06:06:03;17.00;99.90
28677;DHT22;15858;48.338;11.078;2023-05-23T06:08:30;16.90;99.90
28677;DHT22;15858;48.338;11.078;2023-05-23T06:10:57;17.00;99.90
28677;DHT22;15858;48.338;11.078;2023-05-23T06:13:23;17.00;99.90
28677;DHT22;15858;48.338;11.078;2023-05-23T06:15:50;16.90;99.90
28677;DHT22;15858;48.338;11.078;2023-05-23T06:18:17;16.90;99.90
28677;DHT22;15858;48.338;11.078;2023-05-23T06:20:43;16.90;99.90
28677;DHT22;15858;48.338;11.078;2023-05-23T06:23:10;17.00;99.90
28677;DHT22;15858;48.338;11.078;2023-05-23T06:25:37;17.00;99.90
28677;DHT22;15858;48.338;11.078;2023-05-23T06:28:04;17.10;99.90
28677;DHT22;15858;48.338;11.078;2023-05-23T06:30:30;17.10;99.90
28677;DHT22;15858;48.338;11.078;2023-05-23T06:32:57;17.20;99.90
28677;DHT22;15858;48.338;11.078;2023-05-23T06:35:24;17.10;99.90
28677;DHT22;15858;48.338;11.078;2023-05-23T06:37:50;17.10;99.90
28677;DHT22;15858;48.338;11.078;2023-05-23T06:40:17;17.10;99.90
28677;DHT22;15858;48.338;11.078;2023-05-23T06:42:43;17.10;99.90
28677;DHT22;15858;48.338;11.078;2023-05-23T06:45:10;17.20;99.90
28677;DHT22;15858;48.338;11.078;2023-05-23T06:47:39;17.30;99.90
28677;DHT22;15858;48.338;11.078;2023-05-23T06:50:06;17.20;99.90
28677;DHT22;15858;48.338;11.078;2023-05-23T06:52:33;17.20;99.90
28677;DHT22;15858;48.338;11.078;2023-05-23T06:55:00;17.20;99.90
28677;DHT22;15858;48.338;11.078;2023-05-23T06:57:26;17.30;99.90
28677;DHT22;15858;48.338;11.078;2023-05-23T06:59:53;17.20;99.90
28677;DHT22;15858;48.338;11.078;2023-05-23T07:02:20;17.30;99.90
28677;DHT22;15858;48.338;11.078;2023-05-23T07:04:46;17.30;99.90
28677;DHT22;15858;48.338;11.078;2023-05-23T07:07:13;17.30;99.90
28677;DHT22;15858;48.338;11.078;2023-05-23T07:09:40;17.40;99.90
28677;DHT22;15858;48.338;11.078;2023-05-23T07:12:06;17.40;99.90
28677;DHT22;15858;48.338;11.078;2023-05-23T07:14:33;17.40;99.90
28677;DHT22;15858;48.338;11.078;2023-05-23T07:17:00;17.40;99.90
28677;DHT22;15858;48.338;11.078;2023-05-23T07:19:27;17.40;99.90
28677;DHT22;15858;48.338;11.078;2023-05-23T07:21:54;17.50;99.90
28677;DHT22;15858;48.338;11.078;2023-05-23T07:24:20;17.60;99.90
28677;DHT22;15858;48.338;11.078;2023-05-23T07:26:50;17.60;99.90
28677;DHT22;15858;48.338;11.078;2023-05-23T07:29:17;17.60;99.90
28677;DHT22;15858;48.338;11.078;2023-05-23T07:31:43;17.70;99.90
28677;DHT22;15858;48.338;11.078;2023-05-23T07:34:10;17.80;99.90
28677;DHT22;15858;48.338;11.078;2023-05-23T07:36:37;17.90;99.90
28677;DHT22;15858;48.338;11.078;2023-05-23T07:39:03;17.90;99.90
28677;DHT22;15858;48.338;11.078;2023-05-23T07:41:30;17.90;99.90
28677;DHT22;15858;48.338;11.078;2023-05-23T07:43:57;18.00;99.90
28677;DHT22;15858;48.338;11.078;2023-05-23T07:46:23;17.90;99.90
28677;DHT22;15858;48.338;11.078;2023-05-23T07:48:50;17.90;99.90
28677;DHT22;15858;48.338;11.078;2023-05-23T07:51:16;17.80;99.90
28677;DHT22;15858;48.338;11.078;2023-05-23T07:53:43;17.70;99.90
28677;DHT22;15858;48.338;11.078;2023-05-23T07:56:10;17.80;99.90
28677;DHT22;15858;48.338;11.078;2023-05-23T07:58:36;17.90;99.90
28677;DHT22;15858;48.338;11.078;2023-05-23T08:01:03;18.00;99.90
28677;DHT22;15858;48.338;11.078;2023-05-23T08:03:30;18.10;99.90
28677;DHT22;15858;48.338;11.078;2023-05-23T08:05:56;18.20;99.90
28677;DHT22;15858;48.338;11.078;2023-05-23T08:08:23;18.20;99.90
28677;DHT22;15858;48.338;11.078;2023-05-23T08:10:50;18.30;99.90
28677;DHT22;15858;48.338;11.078;2023-05-23T08:13:16;18.30;99.90
28677;DHT22;15858;48.338;11.078;2023-05-23T08:15:43;18.40;99.90
28677;DHT22;15858;48.338;11.078;2023-05-23T08:18:10;18.30;99.90
28677;DHT22;15858;48.338;11.078;2023-05-23T08:20:37;18.40;99.90
28677;DHT22;15858;48.338;11.078;2023-05-23T08:23:04;18.60;99.90
28677;DHT22;15858;48.338;11.078;2023-05-23T08:25:31;18.70;99.90
28677;DHT22;15858;48.338;11.078;2023-05-23T08:27:58;18.80;99.90
28677;DHT22;15858;48.338;11.078;2023-05-23T08:30:26;18.90;99.90
28677;DHT22;15858;48.338;11.078;2023-05-23T08:32:54;18.80;99.90
28677;DHT22;15858;48.338;11.078;2023-05-23T08:35:21;18.70;99.90
28677;DHT22;15858;48.338;11.078;2023-05-23T08:37:50;18.60;99.90
28677;DHT22;15858;48.338;11.078;2023-05-23T08:40:21;18.60;99.90
28677;DHT22;15858;48.338;11.078;2023-05-23T08:42:49;18.60;99.90
28677;DHT22;15858;48.338;11.078;2023-05-23T08:45:16;18.60;99.90
28677;DHT22;15858;48.338;11.078;2023-05-23T08:47:44;18.60;99.90
28677;DHT22;15858;48.338;11.078;2023-05-23T08:50:13;18.60;99.90
28677;DHT22;15858;48.338;11.078;2023-05-23T08:53:00;18.70;99.90
28677;DHT22;15858;48.338;11.078;2023-05-23T08:55:28;18.80;99.90
28677;DHT22;15858;48.338;11.078;2023-05-23T08:57:57;18.70;99.90
28677;DHT22;15858;48.338;11.078;2023-05-23T09:00:25;18.70;99.90
28677;DHT22;15858;48.338;11.078;2023-05-23T09:02:52;18.60;99.90
28677;DHT22;15858;48.338;11.078;2023-05-23T09:05:20;18.60;99.90
28677;DHT22;15858;48.338;11.078;2023-05-23T09:07:47;18.70;99.90
28677;DHT22;15858;48.338;11.078;2023-05-23T09:10:14;18.80;99.90
28677;DHT22;15858;48.338;11.078;2023-05-23T09:12:41;18.80;99.90
28677;DHT22;15858;48.338;11.078;2023-05-23T09:15:09;18.80;99.90
28677;DHT22;15858;48.338;11.078;2023-05-23T09:17:36;18.80;99.90
28677;DHT22;15858;48.338;11.078;2023-05-23T09:20:03;18.80;99.90
28677;DHT22;15858;48.338;11.078;2023-05-23T09:22:36;18.80;99.90
28677;DHT22;15858;48.338;11.078;2023-05-23T09:25:03;18.90;99.90
28677;DHT22;15858;48.338;11.078;2023-05-23T09:27:30;18.90;99.90
28677;DHT22;15858;48.338;11.078;2023-05-23T09:29:57;19.00;99.90
28677;DHT22;15858;48.338;11.078;2023-05-23T09:32:23;19.10;99.90
28677;DHT22;15858;48.338;11.078;2023-05-23T09:35:01;19.10;99.90
28677;DHT22;15858;48.338;11.078;2023-05-23T09:37:39;19.10;99.90
28677;DHT22;15858;48.338;11.078;2023-05-23T09:40:11;19.00;99.90
28677;DHT22;15858;48.338;11.078;2023-05-23T09:42:42;18.90;99.90
28677;DHT22;15858;48.338;11.078;2023-05-23T09:45:14;18.90;99.90
28677;DHT22;15858;48.338;11.078;2023-05-23T09:47:51;18.90;99.90
28677;DHT22;15858;48.338;11.078;2023-05-23T09:50:18;18.90;99.90
28677;DHT22;15858;48.338;11.078;2023-05-23T09:52:45;18.80;99.90
28677;DHT22;15858;48.338;11.078;2023-05-23T09:55:12;18.90;99.90
28677;DHT22;15858;48.338;11.078;2023-05-23T09:57:41;19.00;99.90
28677;DHT22;15858;48.338;11.078;2023-05-23T10:00:09;19.10;99.90
28677;DHT22;15858;48.338;11.078;2023-05-23T10:05:37;19.40;99.90
28677;DHT22;15858;48.338;11.078;2023-05-23T10:08:13;19.60;99.90
28677;DHT22;15858;48.338;11.078;2023-05-23T10:13:48;19.90;99.90
28677;DHT22;15858;48.338;11.078;2023-05-23T10:19:15;19.90;99.90
28677;DHT22;15858;48.338;11.078;2023-05-23T10:21:46;19.90;99.90
28677;DHT22;15858;48.338;11.078;2023-05-23T10:24:15;19.80;99.90
28677;DHT22;15858;48.338;11.078;2023-05-23T10:26:44;19.70;99.90
28677;DHT22;15858;48.338;11.078;2023-05-23T10:29:11;19.90;99.90
28677;DHT22;15858;48.338;11.078;2023-05-23T10:31:38;20.00;99.90
28677;DHT22;15858;48.338;11.078;2023-05-23T10:34:25;20.00;99.90
28677;DHT22;15858;48.338;11.078;2023-05-23T10:39:51;19.80;99.90
28677;DHT22;15858;48.338;11.078;2023-05-23T10:42:44;19.90;99.90
28677;DHT22;15858;48.338;11.078;2023-05-23T10:47:41;20.20;99.90
28677;DHT22;15858;48.338;11.078;2023-05-23T10:50:12;20.20;99.90
28677;DHT22;15858;48.338;11.078;2023-05-23T10:52:39;20.10;99.90
28677;DHT22;15858;48.338;11.078;2023-05-23T10:55:13;20.30;99.90
28677;DHT22;15858;48.338;11.078;2023-05-23T10:57:40;20.40;99.90
28677;DHT22;15858;48.338;11.078;2023-05-23T11:00:12;20.80;99.90
28677;DHT22;15858;48.338;11.078;2023-05-23T11:02:52;21.10;99.90
28677;DHT22;15858;48.338;11.078;2023-05-23T11:05:20;21.10;99.90
28677;DHT22;15858;48.338;11.078;2023-05-23T11:08:18;21.20;99.90
28677;DHT22;15858;48.338;11.078;2023-05-23T11:13:19;21.50;99.90
28677;DHT22;15858;48.338;11.078;2023-05-23T11:15:46;21.70;99.90
28677;DHT22;15858;48.338;11.078;2023-05-23T11:18:25;21.40;99.90
28677;DHT22;15858;48.338;11.078;2023-05-23T11:20:53;21.10;99.90
28677;DHT22;15858;48.338;11.078;2023-05-23T11:23:21;21.00;99.90
28677;DHT22;15858;48.338;11.078;2023-05-23T11:25:51;21.00;99.90
28677;DHT22;15858;48.338;11.078;2023-05-23T11:28:19;20.80;99.90
28677;DHT22;15858;48.338;11.078;2023-05-23T11:30:49;21.00;99.90
28677;DHT22;15858;48.338;11.078;2023-05-23T11:33:16;21.30;99.90
28677;DHT22;15858;48.338;11.078;2023-05-23T11:38:10;21.40;99.90
28677;DHT22;15858;48.338;11.078;2023-05-23T11:40:39;21.70;99.90
28677;DHT22;15858;48.338;11.078;2023-05-23T11:43:08;21.80;99.90
28677;DHT22;15858;48.338;11.078;2023-05-23T11:45:37;21.90;99.90
28677;DHT22;15858;48.338;11.078;2023-05-23T11:48:14;21.90;99.90
28677;DHT22;15858;48.338;11.078;2023-05-23T11:50:47;22.00;99.90
28677;DHT22;15858;48.338;11.078;2023-05-23T11:53:15;22.00;99.90
28677;DHT22;15858;48.338;11.078;2023-05-23T11:55:57;22.20;99.90
28677;DHT22;15858;48.338;11.078;2023-05-23T11:58:35;22.40;99.90
28677;DHT22;15858;48.338;11.078;2023-05-23T12:01:06;22.50;99.90
28677;DHT22;15858;48.338;11.078;2023-05-23T12:03:49;22.40;99.90
28677;DHT22;15858;48.338;11.078;2023-05-23T12:06:19;22.00;99.90
28677;DHT22;15858;48.338;11.078;2023-05-23T12:08:46;22.00;99.90
28677;DHT22;15858;48.338;11.078;2023-05-23T12:11:13;21.90;99.90
28677;DHT22;15858;48.338;11.078;2023-05-23T12:13:41;22.10;99.90
28677;DHT22;15858;48.338;11.078;2023-05-23T12:16:08;22.30;99.90
28677;DHT22;15858;48.338;11.078;2023-05-23T12:18:36;22.50;99.90
28677;DHT22;15858;48.338;11.078;2023-05-23T12:21:05;22.50;99.90
28677;DHT22;15858;48.338;11.078;2023-05-23T12:23:32;22.50;99.90
28677;DHT22;15858;48.338;11.078;2023-05-23T12:26:04;22.20;99.90
28677;DHT22;15858;48.338;11.078;2023-05-23T12:28:36;21.90;99.90
28677;DHT22;15858;48.338;11.078;2023-05-23T12:31:32;21.90;99.90
28677;DHT22;15858;48.338;11.078;2023-05-23T12:33:59;21.80;99.90
28677;DHT22;15858;48.338;11.078;2023-05-23T12:36:28;21.70;99.90
28677;DHT22;15858;48.338;11.078;2023-05-23T12:39:04;21.50;99.90
28677;DHT22;15858;48.338;11.078;2023-05-23T12:41:32;21.40;99.90
28677;DHT22;15858;48.338;11.078;2023-05-23T12:43:59;21.30;99.90
28677;DHT22;15858;48.338;11.078;2023-05-23T12:46:26;21.40;99.90
28677;DHT22;15858;48.338;11.078;2023-05-23T12:48:54;21.60;99.90
28677;DHT22;15858;48.338;11.078;2023-05-23T12:51:20;21.50;99.90
28677;DHT22;15858;48.338;11.078;2023-05-23T12:53:47;21.30;99.90
28677;DHT22;15858;48.338;11.078;2023-05-23T12:56:14;21.40;99.90
28677;DHT22;15858;48.338;11.078;2023-05-23T12:58:40;21.30;99.90
28677;DHT22;15858;48.338;11.078;2023-05-23T13:01:07;21.30;99.90
28677;DHT22;15858;48.338;11.078;2023-05-23T13:03:34;21.20;99.90
28677;DHT22;15858;48.338;11.078;2023-05-23T13:06:01;21.00;99.90
28677;DHT22;15858;48.338;11.078;2023-05-23T13:08:28;21.10;99.90
28677;DHT22;15858;48.338;11.078;2023-05-23T13:10:56;21.00;99.90
28677;DHT22;15858;48.338;11.078;2023-05-23T13:13:23;21.10;99.90
28677;DHT22;15858;48.338;11.078;2023-05-23T13:15:49;21.00;99.90
28677;DHT22;15858;48.338;11.078;2023-05-23T13:18:17;21.10;99.90
28677;DHT22;15858;48.338;11.078;2023-05-23T13:20:44;21.30;99.90
28677;DHT22;15858;48.338;11.078;2023-05-23T13:23:10;21.50;99.90
28677;DHT22;15858;48.338;11.078;2023-05-23T13:25:37;21.60;99.90
28677;DHT22;15858;48.338;11.078;2023-05-23T13:28:04;21.80;99.90
28677;DHT22;15858;48.338;11.078;2023-05-23T13:30:31;22.00;99.90
28677;DHT22;15858;48.338;11.078;2023-05-23T13:32:58;21.70;99.90
28677;DHT22;15858;48.338;11.078;2023-05-23T13:35:24;21.70;99.90
28677;DHT22;15858;48.338;11.078;2023-05-23T13:37:51;21.60;99.90
28677;DHT22;15858;48.338;11.078;2023-05-23T13:40:20;21.50;99.90
28677;DHT22;15858;48.338;11.078;2023-05-23T13:42:48;21.50;99.90
28677;DHT22;15858;48.338;11.078;2023-05-23T13:45:16;21.30;99.90
28677;DHT22;15858;48.338;11.078;2023-05-23T13:47:43;21.20;99.90
28677;DHT22;15858;48.338;11.078;2023-05-23T13:50:10;21.20;99.90
28677;DHT22;15858;48.338;11.078;2023-05-23T13:52:37;21.10;99.90
28677;DHT22;15858;48.338;11.078;2023-05-23T13:55:08;21.20;99.90
28677;DHT22;15858;48.338;11.078;2023-05-23T13:57:35;21.30;99.90
28677;DHT22;15858;48.338;11.078;2023-05-23T14:00:02;21.40;99.90
28677;DHT22;15858;48.338;11.078;2023-05-23T14:02:29;21.50;99.90
28677;DHT22;15858;48.338;11.078;2023-05-23T14:04:55;21.50;99.90
28677;DHT22;15858;48.338;11.078;2023-05-23T14:07:22;21.70;99.90
28677;DHT22;15858;48.338;11.078;2023-05-23T14:09:49;21.60;99.90
28677;DHT22;15858;48.338;11.078;2023-05-23T14:12:15;21.60;99.90
28677;DHT22;15858;48.338;11.078;2023-05-23T14:14:42;21.70;99.90
28677;DHT22;15858;48.338;11.078;2023-05-23T14:17:16;21.70;99.90
28677;DHT22;15858;48.338;11.078;2023-05-23T14:19:43;21.70;99.90
28677;DHT22;15858;48.338;11.078;2023-05-23T14:22:09;21.80;99.90
28677;DHT22;15858;48.338;11.078;2023-05-23T14:24:36;21.30;99.90
28677;DHT22;15858;48.338;11.078;2023-05-23T14:27:03;21.20;99.90
28677;DHT22;15858;48.338;11.078;2023-05-23T14:29:30;21.00;99.90
28677;DHT22;15858;48.338;11.078;2023-05-23T14:31:56;21.10;99.90
28677;DHT22;15858;48.338;11.078;2023-05-23T14:34:23;20.90;99.90
28677;DHT22;15858;48.338;11.078;2023-05-23T14:36:50;20.80;99.90
28677;DHT22;15858;48.338;11.078;2023-05-23T14:39:16;21.10;99.90
28677;DHT22;15858;48.338;11.078;2023-05-23T14:41:43;21.10;99.90
28677;DHT22;15858;48.338;11.078;2023-05-23T14:44:09;21.20;99.90
28677;DHT22;15858;48.338;11.078;2023-05-23T14:46:36;21.20;99.90
28677;DHT22;15858;48.338;11.078;2023-05-23T14:49:03;21.20;99.90
28677;DHT22;15858;48.338;11.078;2023-05-23T14:51:30;21.10;99.90
28677;DHT22;15858;48.338;11.078;2023-05-23T14:54:14;21.20;99.90
28677;DHT22;15858;48.338;11.078;2023-05-23T14:56:40;21.20;99.90
28677;DHT22;15858;48.338;11.078;2023-05-23T14:59:07;21.30;99.90
28677;DHT22;15858;48.338;11.078;2023-05-23T15:01:34;21.30;99.90
28677;DHT22;15858;48.338;11.078;2023-05-23T15:04:05;21.10;99.90
28677;DHT22;15858;48.338;11.078;2023-05-23T15:06:31;21.10;99.90
28677;DHT22;15858;48.338;11.078;2023-05-23T15:08:58;21.10;99.90
28677;DHT22;15858;48.338;11.078;2023-05-23T15:11:25;21.10;99.90
28677;DHT22;15858;48.338;11.078;2023-05-23T15:13:53;21.20;99.90
28677;DHT22;15858;48.338;11.078;2023-05-23T15:16:20;21.10;99.90
28677;DHT22;15858;48.338;11.078;2023-05-23T15:18:46;21.20;99.90
28677;DHT22;15858;48.338;11.078;2023-05-23T15:21:13;21.20;99.90
28677;DHT22;15858;48.338;11.078;2023-05-23T15:23:40;21.10;99.90
28677;DHT22;15858;48.338;11.078;2023-05-23T15:26:06;21.20;99.90
28677;DHT22;15858;48.338;11.078;2023-05-23T15:28:33;21.40;99.90
28677;DHT22;15858;48.338;11.078;2023-05-23T15:31:00;21.40;99.90
28677;DHT22;15858;48.338;11.078;2023-05-23T15:33:26;21.50;99.90
28677;DHT22;15858;48.338;11.078;2023-05-23T15:35:53;21.30;99.90
28677;DHT22;15858;48.338;11.078;2023-05-23T15:38:20;21.10;99.90
28677;DHT22;15858;48.338;11.078;2023-05-23T15:40:46;20.80;99.90
28677;DHT22;15858;48.338;11.078;2023-05-23T15:43:13;20.90;99.90
28677;DHT22;15858;48.338;11.078;2023-05-23T15:45:40;20.60;99.90